Benoit, Wisconsin
Current Conditions -  °F | °C
As of 1:53 AM on Friday 31 Oct 2014 (Local Time) from KASX Reporting Station
Overcast Overcast  
Wind Chill: 19°   Ceiling: 3700
Heat Index: 31°   Visibility: 10mi
Dew Point: 21°   Wind: 17mph
Humidity: 67%   Direction: 350°N
Pressure: 30.35"   Gusts: NA
Location:  46.5°N, 91.08°W
Report Text: KASX 310653Z AUTO 35015KT 10SM OVC037 M01/M06 A3035 RMK AO2 PK WND 01029/0606 SLP289 T10061061 $
Loading
Personal Weather Stations






























Interactive Weather Map
Tropical Storm Tracking
New forecast layout! Learn more

10-Day Weather Forecast

Advertisements
Track Severe Weather on mobile